Time;durP1;ratioP1;P1;durP2;ratioP2;P2;SDS_P1;SDS_P2;PMS_P1;PMS_P2;Temp;Humidity;BMP_temperature;BMP_pressure;BME280_temperature;BME280_humidity;BME280_pressure;Samples;Min_cycle;Max_cycle;Signal;HPM_P1;HPM_P2
2022/10/14 00:00:16;;;;;;;;;;;;;;;;;;1049320;28;3184;-51
2022/10/14 00:01:11;;;;;;;;;;;;;;;;;;1046133;28;1725;-51
2022/10/14 00:01:55;;;;;;;;;;;;;;;;;;1047428;28;2320;-47
2022/10/14 00:02:26;;;;;;;;;;;;;;;;;;1042667;28;2497;-56
2022/10/14 00:02:56;;;;;;;;;;;;;;;;;;1043354;28;2914;-51
2022/10/14 00:03:27;;;;;;;;;;;;;;;;;;1046139;28;2172;-50
2022/10/14 00:03:57;;;;;;;;;;;;;;;;;;1046952;28;2062;-53
2022/10/14 00:04:28;;;;;;;;;;;;;;;;;;1048759;28;2434;-52
2022/10/14 00:05:00;;;;;;;;;;;;;;;;;;1047379;28;2742;-54
2022/10/14 00:05:30;;;;;;;;;;;;;;;;;;1042223;28;1979;-52
2022/10/14 00:06:08;;;;;;;;;;;;;;;;;;1041593;28;3266;-52
2022/10/14 00:06:39;;;;;;;;;;;;;;;;;;1044349;28;2550;-54
2022/10/14 00:07:09;;;;;;;;;;;;;;;;;;1045971;28;2104;-56
2022/10/14 00:07:40;;;;;;;;;;;;;;;;;;1048285;28;3132;-55
2022/10/14 00:08:10;;;;;;;;;;;;;;;;;;1046479;28;3324;-51
2022/10/14 00:08:42;;;;;;;;;;;;;;;;;;1050811;28;2206;-53
2022/10/14 00:09:12;;;;;;;;;;;;;;;;;;1050049;28;2354;-54
2022/10/14 00:09:42;;;;;;;;;;;;;;;;;;1050519;28;2759;-51
2022/10/14 00:10:13;;;;;;;;;;;;;;;;;;1048223;28;2154;-51
2022/10/14 00:10:43;;;;;;;;;;;;;;;;;;1051986;28;1684;-53
2022/10/14 00:11:15;;;;;;;;;;;;;;;;;;1048401;28;2682;-51
2022/10/14 00:11:48;;;;;;;;;;;;;;;;;;1046309;28;2463;-56
2022/10/14 00:12:19;;;;;;;;;;;;;;;;;;1038653;28;2237;-51
2022/10/14 00:12:49;;;;;;;;;;;;;;;;;;1037806;28;2943;-49
2022/10/14 00:13:20;;;;;;;;;;;;;;;;;;1040448;28;2497;-53
2022/10/14 00:13:53;;;;;;;;;;;;;;;;;;1045484;28;2542;-49
2022/10/14 00:14:23;;;;;;;;;;;;;;;;;;1048228;28;2530;-54
2022/10/14 00:14:53;;;;;;;;;;;;;;;;;;1047121;28;2542;-51
2022/10/14 00:15:24;;;;;;;;;;;;;;;;;;1049971;28;2426;-52
2022/10/14 00:15:54;;;;;;;;;;;;;;;;;;1046524;28;2740;-53
2022/10/14 00:16:29;;;;;;;;;;;;;;;;;;1050735;28;2214;-53
2022/10/14 00:16:59;;;;;;;;;;;;;;;;;;1048868;28;1943;-51
2022/10/14 00:17:29;;;;;;;;;;;;;;;;;;1047463;28;2013;-55
2022/10/14 00:18:00;;;;;;;;;;;;;;;;;;1048118;28;2609;-52
2022/10/14 00:18:30;;;;;;;;;;;;;;;;;;1050798;28;2889;-52
2022/10/14 00:19:01;;;;;;;;;;;;;;;;;;1050056;28;2416;-52
2022/10/14 00:19:31;;;;;;;;;;;;;;;;;;1047705;28;2551;-53
2022/10/14 00:20:02;;;;;;;;;;;;;;;;;;1049134;28;2584;-51
2022/10/14 00:20:34;;;;;;;;;;;;;;;;;;1050018;28;2334;-52
2022/10/14 00:21:05;;;;;;;;;;;;;;;;;;1049467;28;2800;-51
2022/10/14 00:21:37;;;;;;;;;;;;;;;;;;1049987;28;2637;-52
2022/10/14 00:22:07;;;;;;;;;;;;;;;;;;1047690;28;2573;-52
2022/10/14 00:22:38;;;;;;;;;;;;;;;;;;1047197;28;3991;-49
2022/10/14 00:23:08;;;;;;;;;;;;;;;;;;1046849;28;2915;-53
2022/10/14 00:23:38;;;;;;;;;;;;;;;;;;1048345;28;3118;-50
2022/10/14 00:24:10;;;;;;;;;;;;;;;;;;1048108;28;3124;-51
2022/10/14 00:24:40;;;;;;;;;;;;;;;;;;1047812;28;2536;-49
2022/10/14 00:25:10;;;;;;;;;;;;;;;;;;1048066;28;3018;-52
2022/10/14 00:25:40;;;;;;;;;;;;;;;;;;1048041;28;2605;-52
2022/10/14 00:26:18;;;;;;;;;;;;;;;;;;1048474;28;2566;-51
2022/10/14 00:26:49;;;;;;;;;;;;;;;;;;1048078;28;2303;-53
2022/10/14 00:27:21;;;;;;;;;;;;;;;;;;1048616;28;2410;-52
2022/10/14 00:27:51;;;;;;;;;;;;;;;;;;1048415;28;2873;-50
2022/10/14 00:28:22;;;;;;;;;;;;;;;;;;1050013;28;2470;-53
2022/10/14 00:28:52;;;;;;;;;;;;;;;;;;1048951;28;2543;-53
2022/10/14 00:29:23;;;;;;;;;;;;;;;;;;1047436;28;2595;-53
2022/10/14 00:29:53;;;;;;;;;;;;;;;;;;1046214;28;2554;-52
2022/10/14 00:30:23;;;;;;;;;;;;;;;;;;1048731;28;2472;-52
2022/10/14 00:30:55;;;;;;;;;;;;;;;;;;1046728;28;2576;-51
2022/10/14 00:31:26;;;;;;;;;;;;;;;;;;1049124;28;2766;-52
2022/10/14 00:31:57;;;;;;;;;;;;;;;;;;1048086;28;2447;-53
2022/10/14 00:32:27;;;;;;;;;;;;;;;;;;1047167;28;2649;-53
2022/10/14 00:32:58;;;;;;;;;;;;;;;;;;1042728;28;2609;-51
2022/10/14 00:33:29;;;;;;;;;;;;;;;;;;1040229;28;2584;-51
2022/10/14 00:33:59;;;;;;;;;;;;;;;;;;1040900;28;2541;-50
2022/10/14 00:34:30;;;;;;;;;;;;;;;;;;1041932;28;2355;-49
2022/10/14 00:35:01;;;;;;;;;;;;;;;;;;1043545;28;2503;-54
2022/10/14 00:35:31;;;;;;;;;;;;;;;;;;1050169;28;2458;-50
2022/10/14 00:36:03;;;;;;;;;;;;;;;;;;1046856;28;2479;-51
2022/10/14 00:36:34;;;;;;;;;;;;;;;;;;1048594;28;3092;-52
2022/10/14 00:37:05;;;;;;;;;;;;;;;;;;1039382;28;2562;-53
2022/10/14 00:37:35;;;;;;;;;;;;;;;;;;1040446;28;2671;-47
2022/10/14 00:38:05;;;;;;;;;;;;;;;;;;1042620;28;2710;-51
2022/10/14 00:38:36;;;;;;;;;;;;;;;;;;1042456;28;2694;-54
2022/10/14 00:39:07;;;;;;;;;;;;;;;;;;1047572;28;2607;-53
2022/10/14 00:39:44;;;;;;;;;;;;;;;;;;1049874;28;4026;-52
2022/10/14 00:40:14;;;;;;;;;;;;;;;;;;1046959;28;2489;-49
2022/10/14 00:40:45;;;;;;;;;;;;;;;;;;1048019;28;3196;-50
2022/10/14 00:41:17;;;;;;;;;;;;;;;;;;1044380;28;2868;-53
2022/10/14 00:41:48;;;;;;;;;;;;;;;;;;1045024;28;2110;-53
2022/10/14 00:42:18;;;;;;;;;;;;;;;;;;1039427;28;2565;-51
2022/10/14 00:42:49;;;;;;;;;;;;;;;;;;1033489;28;3083;-53
2022/10/14 00:43:20;;;;;;;;;;;;;;;;;;1036444;28;2595;-53
2022/10/14 00:44:02;;;;;;;;;;;;;;;;;;1041902;28;2248;-51
2022/10/14 00:44:32;;;;;;;;;;;;;;;;;;1044882;28;3002;-51
2022/10/14 00:45:12;;;;;;;;;;;;;;;;;;1052207;28;2628;-50
2022/10/14 00:45:49;;;;;;;;;;;;;;;;;;1049442;28;2475;-53
2022/10/14 00:46:28;;;;;;;;;;;;;;;;;;1049811;28;2494;-53
2022/10/14 00:46:58;;;;;;;;;;;;;;;;;;1047684;28;2861;-49
2022/10/14 00:47:29;;;;;;;;;;;;;;;;;;1048232;28;2488;-55
2022/10/14 00:47:59;;;;;;;;;;;;;;;;;;1047913;28;2500;-52
2022/10/14 00:48:30;;;;;;;;;;;;;;;;;;1049160;28;2437;-55
2022/10/14 00:49:02;;;;;;;;;;;;;;;;;;1048225;28;2611;-51
2022/10/14 00:49:34;;;;;;;;;;;;;;;;;;1050861;28;4208;-50
2022/10/14 00:50:05;;;;;;;;;;;;;;;;;;1051481;28;2425;-52
2022/10/14 00:50:35;;;;;;;;;;;;;;;;;;1049729;28;2055;-55
2022/10/14 00:51:06;;;;;;;;;;;;;;;;;;1046971;28;2717;-52
2022/10/14 00:51:38;;;;;;;;;;;;;;;;;;1047412;28;2396;-52
2022/10/14 00:52:16;;;;;;;;;;;;;;;;;;1050446;28;2644;-50
2022/10/14 00:52:47;;;;;;;;;;;;;;;;;;1043618;28;2598;-52
2022/10/14 00:53:18;;;;;;;;;;;;;;;;;;1044924;28;2677;-52
2022/10/14 00:53:48;;;;;;;;;;;;;;;;;;1043388;28;3618;-53
2022/10/14 00:54:23;;;;;;;;;;;;;;;;;;1051408;28;1039;-51
2022/10/14 00:54:57;;;;;;;;;;;;;;;;;;1049796;28;2099;-54
2022/10/14 00:55:27;;;;;;;;;;;;;;;;;;1045876;28;2835;-49
2022/10/14 00:55:57;;;;;;;;;;;;;;;;;;1047821;28;2528;-53
2022/10/14 00:56:29;;;;;;;;;;;;;;;;;;1047807;28;2684;-50
2022/10/14 00:57:01;;;;;;;;;;;;;;;;;;1043906;28;2553;-50
2022/10/14 00:57:31;;;;;;;;;;;;;;;;;;1044195;28;2731;-51
2022/10/14 00:58:03;;;;;;;;;;;;;;;;;;1043175;28;3139;-51
2022/10/14 00:58:34;;;;;;;;;;;;;;;;;;1047513;28;2477;-52
2022/10/14 00:59:05;;;;;;;;;;;;;;;;;;1049451;28;1932;-53
2022/10/14 00:59:37;;;;;;;;;;;;;;;;;;1045568;28;2333;-50
2022/10/14 01:00:09;;;;;;;;;;;;;;;;;;1044515;28;2310;-48
2022/10/14 01:00:40;;;;;;;;;;;;;;;;;;1046109;28;2826;-52
2022/10/14 01:01:10;;;;;;;;;;;;;;;;;;1048489;28;3090;-51
2022/10/14 01:01:41;;;;;;;;;;;;;;;;;;1047019;28;2537;-51
2022/10/14 01:02:11;;;;;;;;;;;;;;;;;;1047185;28;2422;-52
2022/10/14 01:02:41;;;;;;;;;;;;;;;;;;1047978;28;2347;-52
2022/10/14 01:03:19;;;;;;;;;;;;;;;;;;1050587;28;2072;-48
2022/10/14 01:03:50;;;;;;;;;;;;;;;;;;1047998;28;2391;-53
2022/10/14 01:04:21;;;;;;;;;;;;;;;;;;1048475;28;2482;-50
2022/10/14 01:04:52;;;;;;;;;;;;;;;;;;1045835;28;2479;-51
2022/10/14 01:05:24;;;;;;;;;;;;;;;;;;1046169;28;2918;-52
2022/10/14 01:05:57;;;;;;;;;;;;;;;;;;1047819;28;2490;-56
2022/10/14 01:06:41;;;;;;;;;;;;;;;;;;1041388;28;2442;-51
2022/10/14 01:07:18;;;;;;;;;;;;;;;;;;1044734;28;2397;-51
2022/10/14 01:08:01;;;;;;;;;;;;;;;;;;1044117;28;2768;-47
2022/10/14 01:08:44;;;;;;;;;;;;;;;;;;1048939;28;2751;-50
2022/10/14 01:09:24;;;;;;;;;;;;;;;;;;1047243;28;2519;-50
2022/10/14 01:09:57;;;;;;;;;;;;;;;;;;1048059;28;2973;-48
2022/10/14 01:10:28;;;;;;;;;;;;;;;;;;1040028;28;2701;-56
2022/10/14 01:11:17;;;;;;;;;;;;;;;;;;1040531;28;2685;-49
2022/10/14 01:12:07;;;;;;;;;;;;;;;;;;1043105;28;3100;-55
2022/10/14 01:12:44;;;;;;;;;;;;;;;;;;1046904;28;2565;-50
2022/10/14 01:13:24;;;;;;;;;;;;;;;;;;1046934;28;3122;-51
2022/10/14 01:14:02;;;;;;;;;;;;;;;;;;1046764;28;2763;-52
2022/10/14 01:14:50;;;;;;;;;;;;;;;;;;1048821;28;2769;-53
2022/10/14 01:15:24;;;;;;;;;;;;;;;;;;1047447;28;2441;-56
2022/10/14 01:16:03;;;;;;;;;;;;;;;;;;1049127;28;2469;-49
2022/10/14 01:16:45;;;;;;;;;;;;;;;;;;1044617;28;2483;-50
2022/10/14 01:17:29;;;;;;;;;;;;;;;;;;1048623;28;2389;-53
2022/10/14 01:18:15;;;;;;;;;;;;;;;;;;1038560;28;2549;-51
2022/10/14 01:18:54;;;;;;;;;;;;;;;;;;1045879;28;2567;-50
2022/10/14 01:19:51;;;;;;;;;;;;;;;;;;1046625;28;1971;-50
2022/10/14 01:20:21;;;;;;;;;;;;;;;;;;1048741;28;2534;-53
2022/10/14 01:21:00;;;;;;;;;;;;;;;;;;1048545;28;1967;-54
2022/10/14 01:21:33;;;;;;;;;;;;;;;;;;1048180;28;2721;-53
2022/10/14 01:22:25;;;;;;;;;;;;;;;;;;1048625;28;2140;-54
2022/10/14 01:23:11;;;;;;;;;;;;;;;;;;1049212;28;2471;-54
2022/10/14 01:23:46;;;;;;;;;;;;;;;;;;1048172;28;2583;-51
2022/10/14 01:24:25;;;;;;;;;;;;;;;;;;1047432;28;2503;-52
2022/10/14 01:25:06;;;;;;;;;;;;;;;;;;1039986;28;2569;-54
2022/10/14 01:25:36;;;;;;;;;;;;;;;;;;1043033;28;2565;-52
2022/10/14 01:26:20;;;;;;;;;;;;;;;;;;1043349;28;2945;-53
2022/10/14 01:27:04;;;;;;;;;;;;;;;;;;1046178;28;2392;-50
2022/10/14 01:27:37;;;;;;;;;;;;;;;;;;1043236;28;2793;-52
2022/10/14 01:28:10;;;;;;;;;;;;;;;;;;1043963;28;2096;-49
2022/10/14 01:28:48;;;;;;;;;;;;;;;;;;1042894;28;3429;-48
2022/10/14 01:29:37;;;;;;;;;;;;;;;;;;1042936;28;2277;-49
2022/10/14 01:30:33;;;;;;;;;;;;;;;;;;1049454;28;2399;-52
2022/10/14 01:31:06;;;;;;;;;;;;;;;;;;1045234;28;3148;-52
2022/10/14 01:31:39;;;;;;;;;;;;;;;;;;1048300;28;3109;-51
2022/10/14 01:32:13;;;;;;;;;;;;;;;;;;1044958;28;2554;-52
2022/10/14 01:32:49;;;;;;;;;;;;;;;;;;1045984;28;2544;-50
2022/10/14 01:33:22;;;;;;;;;;;;;;;;;;1048529;28;2760;-54
2022/10/14 01:33:55;;;;;;;;;;;;;;;;;;1050080;28;2490;-51
2022/10/14 01:34:30;;;;;;;;;;;;;;;;;;1047809;28;2376;-49
2022/10/14 01:35:05;;;;;;;;;;;;;;;;;;1047854;28;2348;-57
2022/10/14 01:35:45;;;;;;;;;;;;;;;;;;1048050;28;2565;-51
2022/10/14 01:36:17;;;;;;;;;;;;;;;;;;1049083;28;2883;-51
2022/10/14 01:36:50;;;;;;;;;;;;;;;;;;1047832;28;2500;-55
2022/10/14 01:37:23;;;;;;;;;;;;;;;;;;1046966;28;2438;-54
2022/10/14 01:37:58;;;;;;;;;;;;;;;;;;1048826;28;2978;-51
2022/10/14 01:38:30;;;;;;;;;;;;;;;;;;1049314;28;2815;-49
2022/10/14 01:39:06;;;;;;;;;;;;;;;;;;1048437;28;2483;-51
2022/10/14 01:39:40;;;;;;;;;;;;;;;;;;1047157;28;2508;-52
2022/10/14 01:40:13;;;;;;;;;;;;;;;;;;1045517;28;2424;-54
2022/10/14 01:41:05;;;;;;;;;;;;;;;;;;1046983;28;2482;-50
2022/10/14 01:41:48;;;;;;;;;;;;;;;;;;1048902;28;2630;-52
2022/10/14 01:42:20;;;;;;;;;;;;;;;;;;1047979;28;3307;-48
2022/10/14 01:42:51;;;;;;;;;;;;;;;;;;1046372;28;2751;-53
2022/10/14 01:43:23;;;;;;;;;;;;;;;;;;1048282;28;3035;-51
2022/10/14 01:43:56;;;;;;;;;;;;;;;;;;1049159;28;1593;-50
2022/10/14 01:44:29;;;;;;;;;;;;;;;;;;1047730;28;2241;-52
2022/10/14 01:45:10;;;;;;;;;;;;;;;;;;1048295;28;2336;-51
2022/10/14 01:45:48;;;;;;;;;;;;;;;;;;1051533;28;2127;-54
2022/10/14 01:46:26;;;;;;;;;;;;;;;;;;1055021;28;2087;-52
2022/10/14 01:46:58;;;;;;;;;;;;;;;;;;1047793;28;2060;-51
2022/10/14 01:47:30;;;;;;;;;;;;;;;;;;1046097;28;2429;-50
2022/10/14 01:48:02;;;;;;;;;;;;;;;;;;1045515;28;1696;-49
2022/10/14 01:48:35;;;;;;;;;;;;;;;;;;1046285;28;2715;-50
2022/10/14 01:49:09;;;;;;;;;;;;;;;;;;1044810;28;2563;-55
2022/10/14 01:49:45;;;;;;;;;;;;;;;;;;1046849;28;2515;-53
2022/10/14 01:50:19;;;;;;;;;;;;;;;;;;1046383;28;1850;-52
2022/10/14 01:50:51;;;;;;;;;;;;;;;;;;1047238;28;2180;-51
2022/10/14 01:51:25;;;;;;;;;;;;;;;;;;1048723;28;2399;-50
2022/10/14 01:52:03;;;;;;;;;;;;;;;;;;1045081;28;2726;-52
2022/10/14 01:52:38;;;;;;;;;;;;;;;;;;1048053;28;2664;-54
2022/10/14 01:53:23;;;;;;;;;;;;;;;;;;1047030;28;2826;-49
2022/10/14 01:53:57;;;;;;;;;;;;;;;;;;1053172;28;2623;-52
2022/10/14 01:54:33;;;;;;;;;;;;;;;;;;1054589;28;1877;-50
2022/10/14 01:55:06;;;;;;;;;;;;;;;;;;1054852;28;2368;-53
2022/10/14 01:55:40;;;;;;;;;;;;;;;;;;1052721;28;2622;-48
2022/10/14 01:56:10;;;;;;;;;;;;;;;;;;1050955;28;2210;-52
2022/10/14 01:56:43;;;;;;;;;;;;;;;;;;1055210;28;2406;-51
2022/10/14 01:57:16;;;;;;;;;;;;;;;;;;1047699;28;2455;-54
2022/10/14 01:57:49;;;;;;;;;;;;;;;;;;1050203;28;2466;-54
2022/10/14 01:58:21;;;;;;;;;;;;;;;;;;1040864;28;2621;-55
2022/10/14 01:58:52;;;;;;;;;;;;;;;;;;1041152;28;2317;-51
2022/10/14 01:59:23;;;;;;;;;;;;;;;;;;1044005;28;2460;-54
2022/10/14 01:59:55;;;;;;;;;;;;;;;;;;1044262;28;2517;-48
2022/10/14 02:00:26;;;;;;;;;;;;;;;;;;1042576;28;1961;-51
2022/10/14 02:00:56;;;;;;;;;;;;;;;;;;1045504;28;2444;-51
2022/10/14 02:01:26;;;;;;;;;;;;;;;;;;1046550;28;1882;-53
2022/10/14 02:01:57;;;;;;;;;;;;;;;;;;1044926;28;2469;-53
2022/10/14 02:02:28;;;;;;;;;;;;;;;;;;1052190;28;1846;-57
2022/10/14 02:02:58;;;;;;;;;;;;;;;;;;1051607;28;2236;-51
2022/10/14 02:03:39;;;;;;;;;;;;;;;;;;1054355;28;1675;-50
2022/10/14 02:04:13;;;;;;;;;;;;;;;;;;1047408;28;2359;-48
2022/10/14 02:04:44;;;;;;;;;;;;;;;;;;1050771;28;2273;-52
2022/10/14 02:05:19;;;;;;;;;;;;;;;;;;1050147;28;2704;-54
2022/10/14 02:05:55;;;;;;;;;;;;;;;;;;1046651;28;2836;-52
2022/10/14 02:06:29;;;;;;;;;;;;;;;;;;1048051;28;2481;-50
2022/10/14 02:07:20;;;;;;;;;;;;;;;;;;1048102;28;2755;-48
2022/10/14 02:07:54;;;;;;;;;;;;;;;;;;1050210;28;1746;-49
2022/10/14 02:08:30;;;;;;;;;;;;;;;;;;1048110;28;2065;-51
2022/10/14 02:09:06;;;;;;;;;;;;;;;;;;1047092;28;1749;-50
2022/10/14 02:09:59;;;;;;;;;;;;;;;;;;1049894;28;2377;-51
2022/10/14 02:10:39;;;;;;;;;;;;;;;;;;1041015;28;2422;-53
2022/10/14 02:11:16;;;;;;;;;;;;;;;;;;1047556;28;2435;-50
2022/10/14 02:12:00;;;;;;;;;;;;;;;;;;1048397;28;2556;-52
2022/10/14 02:12:55;;;;;;;;;;;;;;;;;;1052737;28;2221;-52
2022/10/14 02:13:40;;;;;;;;;;;;;;;;;;1053664;28;2995;-51
2022/10/14 02:14:20;;;;;;;;;;;;;;;;;;1053918;28;2730;-52
2022/10/14 02:14:56;;;;;;;;;;;;;;;;;;1050640;28;2575;-53
2022/10/14 02:15:32;;;;;;;;;;;;;;;;;;1047812;28;2944;-48
2022/10/14 02:16:02;;;;;;;;;;;;;;;;;;1048757;28;2738;-56
2022/10/14 02:16:33;;;;;;;;;;;;;;;;;;1047411;28;3164;-53
2022/10/14 02:17:10;;;;;;;;;;;;;;;;;;1048252;28;3016;-53
2022/10/14 02:17:45;;;;;;;;;;;;;;;;;;1052985;28;2716;-54
2022/10/14 02:18:26;;;;;;;;;;;;;;;;;;1048088;28;3040;-54
2022/10/14 02:19:02;;;;;;;;;;;;;;;;;;1049006;28;2755;-56
2022/10/14 02:19:33;;;;;;;;;;;;;;;;;;1049483;28;2348;-53
2022/10/14 02:20:09;;;;;;;;;;;;;;;;;;1047231;28;2501;-51
2022/10/14 02:20:58;;;;;;;;;;;;;;;;;;1046466;28;1905;-50
2022/10/14 02:21:40;;;;;;;;;;;;;;;;;;1046685;28;2506;-51
2022/10/14 02:22:13;;;;;;;;;;;;;;;;;;1043471;28;2393;-50
2022/10/14 02:22:47;;;;;;;;;;;;;;;;;;1045644;28;2959;-55
2022/10/14 02:23:21;;;;;;;;;;;;;;;;;;1046998;28;2508;-56
2022/10/14 02:23:54;;;;;;;;;;;;;;;;;;1048480;28;2134;-50
2022/10/14 02:24:29;;;;;;;;;;;;;;;;;;1053989;28;1984;-50
2022/10/14 02:25:05;;;;;;;;;;;;;;;;;;1046808;28;1599;-50
2022/10/14 02:25:38;;;;;;;;;;;;;;;;;;1044073;28;2724;-48
2022/10/14 02:26:08;;;;;;;;;;;;;;;;;;1044790;28;2640;-50
2022/10/14 02:26:39;;;;;;;;;;;;;;;;;;1042127;28;2822;-53
2022/10/14 02:27:13;;;;;;;;;;;;;;;;;;1048513;28;2452;-50
2022/10/14 02:27:44;;;;;;;;;;;;;;;;;;1048486;28;2915;-50
2022/10/14 02:28:16;;;;;;;;;;;;;;;;;;1048250;28;2690;-52
2022/10/14 02:28:47;;;;;;;;;;;;;;;;;;1051225;28;2861;-50
2022/10/14 02:29:19;;;;;;;;;;;;;;;;;;1052505;28;2527;-50
2022/10/14 02:29:50;;;;;;;;;;;;;;;;;;1052859;28;2741;-54
2022/10/14 02:30:21;;;;;;;;;;;;;;;;;;1053541;28;2397;-53
2022/10/14 02:30:55;;;;;;;;;;;;;;;;;;1044887;28;2691;-53
2022/10/14 02:31:26;;;;;;;;;;;;;;;;;;1043807;28;2416;-53
2022/10/14 02:31:58;;;;;;;;;;;;;;;;;;1044232;28;2475;-51
2022/10/14 02:32:29;;;;;;;;;;;;;;;;;;1043941;28;2127;-54
2022/10/14 02:33:00;;;;;;;;;;;;;;;;;;1047991;28;2303;-52
2022/10/14 02:33:34;;;;;;;;;;;;;;;;;;1048077;28;2418;-51
2022/10/14 02:34:06;;;;;;;;;;;;;;;;;;1047539;28;2348;-48
2022/10/14 02:34:36;;;;;;;;;;;;;;;;;;1049183;28;2387;-50
2022/10/14 02:35:09;;;;;;;;;;;;;;;;;;1053955;28;3087;-53
2022/10/14 02:35:40;;;;;;;;;;;;;;;;;;1053241;28;2506;-54
2022/10/14 02:36:19;;;;;;;;;;;;;;;;;;1046607;28;2005;-52
2022/10/14 02:36:51;;;;;;;;;;;;;;;;;;1042955;28;2510;-53
2022/10/14 02:37:22;;;;;;;;;;;;;;;;;;1045580;28;2065;-50
2022/10/14 02:37:54;;;;;;;;;;;;;;;;;;1042675;28;1730;-52
2022/10/14 02:38:25;;;;;;;;;;;;;;;;;;1042345;28;2099;-53
2022/10/14 02:38:57;;;;;;;;;;;;;;;;;;1048495;28;2249;-48
2022/10/14 02:39:34;;;;;;;;;;;;;;;;;;1050196;28;2863;-57
2022/10/14 02:40:07;;;;;;;;;;;;;;;;;;1053275;28;2539;-55
2022/10/14 02:40:40;;;;;;;;;;;;;;;;;;1052327;28;3212;-51
2022/10/14 02:41:12;;;;;;;;;;;;;;;;;;1052150;28;2328;-53
2022/10/14 02:41:43;;;;;;;;;;;;;;;;;;1052658;28;2109;-56
2022/10/14 02:42:16;;;;;;;;;;;;;;;;;;1046265;28;2714;-56
2022/10/14 02:42:46;;;;;;;;;;;;;;;;;;1044113;28;2114;-53
2022/10/14 02:43:17;;;;;;;;;;;;;;;;;;1044605;28;2949;-53
2022/10/14 02:43:47;;;;;;;;;;;;;;;;;;1044495;28;2524;-53
2022/10/14 02:44:17;;;;;;;;;;;;;;;;;;1048287;28;2684;-48
2022/10/14 02:44:54;;;;;;;;;;;;;;;;;;1046415;28;2562;-48
2022/10/14 02:45:28;;;;;;;;;;;;;;;;;;1046736;28;2633;-51
2022/10/14 02:46:11;;;;;;;;;;;;;;;;;;1047147;28;2507;-48
2022/10/14 02:46:42;;;;;;;;;;;;;;;;;;1047795;28;3015;-51
2022/10/14 02:47:12;;;;;;;;;;;;;;;;;;1046483;28;2524;-48
2022/10/14 02:47:42;;;;;;;;;;;;;;;;;;1049506;28;2700;-52
2022/10/14 02:48:12;;;;;;;;;;;;;;;;;;1049340;28;2427;-49
2022/10/14 02:48:43;;;;;;;;;;;;;;;;;;1051769;28;2009;-49
2022/10/14 02:49:14;;;;;;;;;;;;;;;;;;1049512;28;2498;-49
2022/10/14 02:49:45;;;;;;;;;;;;;;;;;;1049055;28;2488;-54
2022/10/14 02:50:17;;;;;;;;;;;;;;;;;;1048153;28;2648;-52
2022/10/14 02:50:48;;;;;;;;;;;;;;;;;;1048693;28;2560;-54
2022/10/14 02:51:20;;;;;;;;;;;;;;;;;;1044345;28;2529;-55
2022/10/14 02:51:50;;;;;;;;;;;;;;;;;;1044003;28;2527;-52
2022/10/14 02:52:20;;;;;;;;;;;;;;;;;;1045517;28;3124;-52
2022/10/14 02:52:51;;;;;;;;;;;;;;;;;;1042185;28;2391;-49
2022/10/14 02:53:21;;;;;;;;;;;;;;;;;;1048432;28;2485;-52
2022/10/14 02:53:52;;;;;;;;;;;;;;;;;;1046893;28;2735;-52
2022/10/14 02:54:22;;;;;;;;;;;;;;;;;;1048229;28;2418;-52
2022/10/14 02:54:53;;;;;;;;;;;;;;;;;;1048089;28;3225;-50
2022/10/14 02:55:23;;;;;;;;;;;;;;;;;;1047140;28;2892;-51
2022/10/14 02:55:54;;;;;;;;;;;;;;;;;;1046106;28;2962;-52
2022/10/14 02:56:25;;;;;;;;;;;;;;;;;;1048851;28;2580;-50
2022/10/14 02:56:55;;;;;;;;;;;;;;;;;;1046303;28;3076;-51
2022/10/14 02:57:25;;;;;;;;;;;;;;;;;;1048238;28;2739;-53
2022/10/14 02:57:56;;;;;;;;;;;;;;;;;;1047473;28;2103;-52
2022/10/14 02:58:26;;;;;;;;;;;;;;;;;;1049033;28;2018;-52
2022/10/14 02:58:57;;;;;;;;;;;;;;;;;;1042333;28;3178;-50
2022/10/14 02:59:27;;;;;;;;;;;;;;;;;;1040638;28;2686;-52
2022/10/14 02:59:58;;;;;;;;;;;;;;;;;;1043277;28;3019;-53
2022/10/14 03:00:28;;;;;;;;;;;;;;;;;;1040970;28;2445;-49
2022/10/14 03:01:06;;;;;;;;;;;;;;;;;;1046141;28;2397;-49
2022/10/14 03:01:37;;;;;;;;;;;;;;;;;;1042699;28;2824;-52
2022/10/14 03:02:08;;;;;;;;;;;;;;;;;;1041693;28;3014;-54
2022/10/14 03:02:39;;;;;;;;;;;;;;;;;;1037437;28;2464;-53
2022/10/14 03:03:10;;;;;;;;;;;;;;;;;;1038000;28;2309;-53
2022/10/14 03:03:40;;;;;;;;;;;;;;;;;;1040861;28;2493;-54
2022/10/14 03:04:11;;;;;;;;;;;;;;;;;;1046537;28;2404;-51
2022/10/14 03:04:41;;;;;;;;;;;;;;;;;;1047924;28;2466;-53
2022/10/14 03:05:11;;;;;;;;;;;;;;;;;;1052142;28;1684;-51
2022/10/14 03:05:42;;;;;;;;;;;;;;;;;;1050262;28;2512;-52
2022/10/14 03:06:13;;;;;;;;;;;;;;;;;;1047776;28;1690;-54
2022/10/14 03:06:44;;;;;;;;;;;;;;;;;;1048129;28;2637;-49
2022/10/14 03:07:14;;;;;;;;;;;;;;;;;;1047742;28;2644;-54
2022/10/14 03:07:44;;;;;;;;;;;;;;;;;;1049938;28;2911;-53
2022/10/14 03:08:15;;;;;;;;;;;;;;;;;;1048890;28;2236;-49
2022/10/14 03:08:45;;;;;;;;;;;;;;;;;;1049024;28;2259;-52
2022/10/14 03:09:15;;;;;;;;;;;;;;;;;;1051050;28;2519;-51
2022/10/14 03:09:46;;;;;;;;;;;;;;;;;;1050749;28;2420;-56
2022/10/14 03:10:16;;;;;;;;;;;;;;;;;;1047876;28;2799;-52
2022/10/14 03:10:47;;;;;;;;;;;;;;;;;;1050011;28;2073;-51
2022/10/14 03:11:18;;;;;;;;;;;;;;;;;;1046969;28;2457;-50
2022/10/14 03:11:48;;;;;;;;;;;;;;;;;;1049488;28;2448;-53
2022/10/14 03:12:19;;;;;;;;;;;;;;;;;;1048850;28;2318;-52
2022/10/14 03:12:49;;;;;;;;;;;;;;;;;;1049070;28;2588;-49
2022/10/14 03:13:20;;;;;;;;;;;;;;;;;;1039403;28;2662;-54
2022/10/14 03:13:50;;;;;;;;;;;;;;;;;;1045097;28;2743;-53
2022/10/14 03:14:20;;;;;;;;;;;;;;;;;;1045341;28;3118;-51
2022/10/14 03:14:51;;;;;;;;;;;;;;;;;;1045698;28;2590;-54
2022/10/14 03:15:22;;;;;;;;;;;;;;;;;;1048229;28;2705;-50
2022/10/14 03:15:54;;;;;;;;;;;;;;;;;;1042010;28;2586;-55
2022/10/14 03:16:24;;;;;;;;;;;;;;;;;;1043984;28;2478;-52
2022/10/14 03:16:54;;;;;;;;;;;;;;;;;;1047132;28;2561;-53
2022/10/14 03:17:25;;;;;;;;;;;;;;;;;;1049844;28;2025;-50
2022/10/14 03:17:55;;;;;;;;;;;;;;;;;;1048087;28;2378;-52
2022/10/14 03:18:26;;;;;;;;;;;;;;;;;;1050305;28;2467;-50
2022/10/14 03:18:56;;;;;;;;;;;;;;;;;;1048343;28;2626;-48
2022/10/14 03:19:26;;;;;;;;;;;;;;;;;;1047780;28;2721;-53
2022/10/14 03:19:58;;;;;;;;;;;;;;;;;;1049930;28;2430;-50
2022/10/14 03:20:28;;;;;;;;;;;;;;;;;;1047215;28;3037;-51
2022/10/14 03:20:59;;;;;;;;;;;;;;;;;;1050321;28;2559;-55
2022/10/14 03:21:29;;;;;;;;;;;;;;;;;;1042919;28;2573;-52
2022/10/14 03:21:59;;;;;;;;;;;;;;;;;;1043857;28;2688;-54
2022/10/14 03:22:30;;;;;;;;;;;;;;;;;;1046500;28;3658;-55
2022/10/14 03:23:00;;;;;;;;;;;;;;;;;;1044051;28;2915;-51
2022/10/14 03:23:30;;;;;;;;;;;;;;;;;;1050098;28;3714;-51
2022/10/14 03:24:00;;;;;;;;;;;;;;;;;;1049923;28;2131;-53
2022/10/14 03:24:31;;;;;;;;;;;;;;;;;;1046153;28;2778;-54
2022/10/14 03:25:02;;;;;;;;;;;;;;;;;;1049849;28;3002;-54
2022/10/14 03:25:33;;;;;;;;;;;;;;;;;;1043831;28;2579;-49
2022/10/14 03:26:03;;;;;;;;;;;;;;;;;;1044535;28;2764;-51
2022/10/14 03:26:34;;;;;;;;;;;;;;;;;;1042410;28;3049;-52
2022/10/14 03:27:04;;;;;;;;;;;;;;;;;;1045025;28;2557;-51
2022/10/14 03:27:34;;;;;;;;;;;;;;;;;;1048755;28;2671;-50
2022/10/14 03:28:11;;;;;;;;;;;;;;;;;;1047857;28;2409;-52
2022/10/14 03:28:41;;;;;;;;;;;;;;;;;;1049545;28;2309;-50
2022/10/14 03:29:12;;;;;;;;;;;;;;;;;;1048968;28;2493;-51
2022/10/14 03:29:42;;;;;;;;;;;;;;;;;;1049433;28;2412;-51
2022/10/14 03:30:12;;;;;;;;;;;;;;;;;;1050530;28;2595;-53
2022/10/14 03:30:47;;;;;;;;;;;;;;;;;;1051245;28;2473;-54
2022/10/14 03:31:35;;;;;;;;;;;;;;;;;;1048008;28;2197;-54
2022/10/14 03:32:06;;;;;;;;;;;;;;;;;;1041632;28;2538;-54
2022/10/14 03:32:37;;;;;;;;;;;;;;;;;;1040288;28;2325;-54
2022/10/14 03:33:08;;;;;;;;;;;;;;;;;;1038909;28;2665;-52
2022/10/14 03:33:39;;;;;;;;;;;;;;;;;;1033169;28;3082;-52
2022/10/14 03:34:10;;;;;;;;;;;;;;;;;;1028399;28;2647;-54
2022/10/14 03:34:41;;;;;;;;;;;;;;;;;;1030598;28;2579;-52
2022/10/14 03:35:12;;;;;;;;;;;;;;;;;;1028197;28;2588;-50
2022/10/14 03:35:43;;;;;;;;;;;;;;;;;;1033319;28;2787;-54
2022/10/14 03:36:15;;;;;;;;;;;;;;;;;;1032639;28;2497;-56
2022/10/14 03:36:46;;;;;;;;;;;;;;;;;;1032249;28;2788;-50
2022/10/14 03:37:18;;;;;;;;;;;;;;;;;;1033853;28;2498;-54
2022/10/14 03:37:52;;;;;;;;;;;;;;;;;;1034003;28;2661;-52
2022/10/14 03:38:23;;;;;;;;;;;;;;;;;;1034807;28;2530;-53
2022/10/14 03:38:55;;;;;;;;;;;;;;;;;;1032896;28;3084;-49
2022/10/14 03:39:26;;;;;;;;;;;;;;;;;;1028843;28;2486;-52
2022/10/14 03:39:57;;;;;;;;;;;;;;;;;;1033184;28;2378;-52
2022/10/14 03:40:29;;;;;;;;;;;;;;;;;;1037031;28;2365;-50
2022/10/14 03:41:00;;;;;;;;;;;;;;;;;;1040320;28;4438;-50
2022/10/14 03:41:30;;;;;;;;;;;;;;;;;;1043661;28;2708;-52
2022/10/14 03:42:00;;;;;;;;;;;;;;;;;;1049139;28;2622;-49
2022/10/14 03:42:31;;;;;;;;;;;;;;;;;;1048892;28;2546;-53
2022/10/14 03:43:01;;;;;;;;;;;;;;;;;;1051146;28;1883;-51
2022/10/14 03:43:32;;;;;;;;;;;;;;;;;;1049172;28;2478;-50
2022/10/14 03:44:02;;;;;;;;;;;;;;;;;;1049708;28;2562;-53
2022/10/14 03:44:33;;;;;;;;;;;;;;;;;;1049734;28;3067;-50
2022/10/14 03:45:03;;;;;;;;;;;;;;;;;;1050856;28;2704;-53
2022/10/14 03:45:47;;;;;;;;;;;;;;;;;;1049542;28;2950;-52
2022/10/14 03:46:24;;;;;;;;;;;;;;;;;;1049225;28;2861;-51
2022/10/14 03:46:54;;;;;;;;;;;;;;;;;;1048578;28;2258;-54
2022/10/14 03:47:25;;;;;;;;;;;;;;;;;;1049080;28;2414;-52
2022/10/14 03:47:56;;;;;;;;;;;;;;;;;;1046128;28;2326;-52
2022/10/14 03:48:26;;;;;;;;;;;;;;;;;;1044129;28;2593;-53
2022/10/14 03:48:57;;;;;;;;;;;;;;;;;;1042292;28;2913;-52
2022/10/14 03:49:27;;;;;;;;;;;;;;;;;;1036270;28;2373;-53
2022/10/14 03:49:59;;;;;;;;;;;;;;;;;;1045226;28;3059;-50
2022/10/14 03:50:30;;;;;;;;;;;;;;;;;;1044576;28;2684;-54
2022/10/14 03:51:00;;;;;;;;;;;;;;;;;;1035102;28;3178;-50